createdAt,value
2018-12-24T00:02:08.121Z,0.10
2018-12-24T00:05:12.664Z,0.20
2018-12-24T00:08:17.511Z,0.40
2018-12-24T00:11:22.054Z,0.30
2018-12-24T00:14:26.602Z,0.20
2018-12-24T00:17:31.137Z,0.20
2018-12-24T00:20:36.028Z,0.10
2018-12-24T00:23:40.856Z,0.20
2018-12-24T00:26:45.396Z,0.20
2018-12-24T00:29:49.946Z,0.10
2018-12-24T00:32:54.739Z,0.10
2018-12-24T00:35:59.287Z,0.20
2018-12-24T00:39:05.227Z,0.10
2018-12-24T00:42:15.847Z,0.20
2018-12-24T00:45:16.355Z,0.10
2018-12-24T00:48:20.966Z,0.00
2018-12-24T00:51:25.519Z,0.20
2018-12-24T00:54:30.100Z,0.10
2018-12-24T00:57:34.618Z,0.10
2018-12-24T01:00:39.170Z,0.10
2018-12-24T01:03:43.999Z,0.10
2018-12-24T01:06:49.233Z,0.20
2018-12-24T01:09:54.074Z,0.10
2018-12-24T01:12:58.905Z,0.10
2018-12-24T01:16:03.458Z,0.10
2018-12-24T01:19:08.264Z,0.10
2018-12-24T01:22:12.800Z,0.10
2018-12-24T01:25:17.348Z,0.20
2018-12-24T01:28:21.895Z,0.10
2018-12-24T01:31:26.778Z,0.10
2018-12-24T01:34:31.337Z,0.10
2018-12-24T01:37:35.882Z,0.20
2018-12-24T01:40:40.430Z,0.10
2018-12-24T01:43:44.970Z,0.10
2018-12-24T01:46:49.519Z,0.10
2018-12-24T01:49:54.065Z,0.00
2018-12-24T01:52:58.608Z,0.10
2018-12-24T01:56:03.157Z,0.10
2018-12-24T01:59:08.020Z,0.10
2018-12-24T02:02:12.575Z,0.53
2018-12-24T02:05:17.121Z,0.30
2018-12-24T02:08:21.663Z,0.30
2018-12-24T02:11:26.209Z,0.50
2018-12-24T02:14:31.067Z,0.50
2018-12-24T02:17:35.617Z,1.53
2018-12-24T02:20:40.421Z,0.50
2018-12-24T02:23:45.010Z,0.80
2018-12-24T02:26:49.557Z,0.60
2018-12-24T02:29:54.091Z,0.70
2018-12-24T02:32:58.642Z,0.40
2018-12-24T02:36:03.183Z,0.50
2018-12-24T02:39:07.716Z,0.43
2018-12-24T02:42:12.508Z,0.40
2018-12-24T02:45:17.038Z,0.37
2018-12-24T02:48:21.577Z,0.50
2018-12-24T02:51:26.114Z,0.50
2018-12-24T02:54:30.922Z,0.30
2018-12-24T02:57:35.635Z,0.30
2018-12-24T03:00:40.484Z,0.40
2018-12-24T03:03:45.026Z,0.50
2018-12-24T03:06:49.566Z,0.40
2018-12-24T03:09:54.369Z,0.40
2018-12-24T03:13:02.867Z,0.40
2018-12-24T03:16:05.466Z,0.60
2018-12-24T03:19:10.298Z,0.20
2018-12-24T03:22:14.843Z,0.30
2018-12-24T03:25:19.374Z,0.30
2018-12-24T03:28:23.914Z,0.30
2018-12-24T03:31:28.711Z,0.40
2018-12-24T03:34:33.247Z,0.30
2018-12-24T03:37:37.785Z,0.37
2018-12-24T03:40:42.697Z,0.40
2018-12-24T03:43:47.535Z,0.50
2018-12-24T03:46:52.366Z,0.50
2018-12-24T03:49:56.894Z,0.50
2018-12-24T03:53:01.725Z,0.33
2018-12-24T03:56:06.259Z,0.30
2018-12-24T03:59:11.905Z,0.40
2018-12-24T04:02:16.443Z,0.40
2018-12-24T04:05:20.977Z,0.30
2018-12-24T04:08:25.509Z,0.37
2018-12-24T04:11:30.048Z,8.43
2018-12-24T04:14:34.844Z,0.37
2018-12-24T04:17:39.680Z,0.20
2018-12-24T04:20:44.211Z,0.30
2018-12-24T04:23:49.035Z,0.20
2018-12-24T04:26:53.558Z,0.20
2018-12-24T04:29:58.097Z,0.40
2018-12-24T04:33:02.642Z,0.40
2018-12-24T04:36:07.173Z,0.50
2018-12-24T04:39:11.965Z,0.60
2018-12-24T04:42:16.497Z,0.50
2018-12-24T04:45:21.120Z,0.80
2018-12-24T04:48:25.957Z,0.50
2018-12-24T04:51:30.486Z,0.70
2018-12-24T04:54:35.319Z,0.70
2018-12-24T04:57:39.846Z,0.60
2018-12-24T05:00:44.781Z,0.70
2018-12-24T05:03:49.612Z,0.73
2018-12-24T05:06:54.156Z,0.60
2018-12-24T05:09:58.696Z,0.80
2018-12-24T05:13:03.221Z,0.60
2018-12-24T05:16:08.030Z,0.50
2018-12-24T05:19:12.562Z,0.60
2018-12-24T05:22:17.097Z,0.63
2018-12-24T05:25:21.635Z,0.60
2018-12-24T05:28:26.237Z,0.60
2018-12-24T05:31:30.786Z,0.30
2018-12-24T05:34:35.392Z,0.20
2018-12-24T05:37:39.923Z,0.30
2018-12-24T05:40:44.743Z,0.30
2018-12-24T05:43:49.758Z,0.20
2018-12-24T05:46:54.393Z,0.23
2018-12-24T05:49:58.935Z,0.20
2018-12-24T05:53:03.765Z,0.20
2018-12-24T05:56:08.599Z,0.30
2018-12-24T05:59:13.429Z,0.50
2018-12-24T06:02:17.975Z,0.60
2018-12-24T06:05:22.787Z,0.50
2018-12-24T06:08:27.315Z,0.43
2018-12-24T06:11:31.852Z,0.53
2018-12-24T06:14:36.393Z,0.60
2018-12-24T06:17:41.208Z,0.50
2018-12-24T06:20:46.035Z,0.60
2018-12-24T06:23:50.868Z,0.60
2018-12-24T06:26:55.698Z,0.70
2018-12-24T06:30:00.538Z,0.73
2018-12-24T06:33:05.373Z,0.70
2018-12-24T06:36:10.204Z,0.80
2018-12-24T06:39:14.727Z,0.93
2018-12-24T06:42:19.565Z,0.90
2018-12-24T06:45:24.402Z,0.70
2018-12-24T06:48:28.929Z,1.00
2018-12-24T06:51:33.485Z,1.47
2018-12-24T06:54:38.071Z,1.20
2018-12-24T06:57:42.610Z,1.30
2018-12-24T07:00:47.439Z,1.10
2018-12-24T07:03:52.265Z,1.47
2018-12-24T07:06:56.800Z,1.30
2018-12-24T07:10:01.346Z,1.50
2018-12-24T07:13:06.152Z,1.40
2018-12-24T07:16:10.988Z,1.20
2018-12-24T07:19:15.522Z,1.70
2018-12-24T07:22:20.072Z,1.20
2018-12-24T07:25:24.611Z,1.00
2018-12-24T07:28:29.397Z,1.53
2018-12-24T07:31:33.934Z,0.90
2018-12-24T07:34:38.471Z,0.87
2018-12-24T07:37:43.005Z,0.70
2018-12-24T07:40:47.805Z,0.80
2018-12-24T07:43:52.331Z,0.70
2018-12-24T07:46:57.171Z,0.57
2018-12-24T07:50:01.711Z,1.10
2018-12-24T07:53:06.249Z,1.17
2018-12-24T07:56:11.050Z,0.80
2018-12-24T07:59:15.886Z,0.57
2018-12-24T08:02:20.722Z,0.60
2018-12-24T08:05:25.548Z,0.53
2018-12-24T08:08:30.092Z,0.80
2018-12-24T08:11:34.907Z,0.57
2018-12-24T08:14:39.437Z,1.20
2018-12-24T08:17:44.267Z,3.47
2018-12-24T08:20:49.100Z,1.17
2018-12-24T08:23:53.931Z,0.97
2018-12-24T08:26:58.764Z,1.20
2018-12-24T08:30:03.301Z,0.80
2018-12-24T08:33:07.852Z,1.30
2018-12-24T08:36:13.548Z,0.87
2018-12-24T08:39:18.109Z,1.10
2018-12-24T08:45:35.443Z,1.40
2018-12-24T08:48:40.276Z,1.50
2018-12-24T08:51:44.805Z,1.97
2018-12-24T08:54:49.636Z,2.20
2018-12-24T08:57:54.172Z,2.43
2018-12-24T09:00:58.719Z,2.33
2018-12-24T09:04:03.519Z,2.50
2018-12-24T09:07:08.049Z,2.00
2018-12-24T09:10:12.592Z,2.30
2018-12-24T09:13:17.139Z,2.70
2018-12-24T09:16:21.678Z,2.63
2018-12-24T09:19:26.563Z,2.60
2018-12-24T09:22:31.122Z,3.40
2018-12-24T09:25:35.923Z,2.87
2018-12-24T09:28:40.750Z,2.70
2018-12-24T09:31:45.286Z,3.37
2018-12-24T09:34:50.119Z,2.87
2018-12-24T09:37:54.949Z,3.13
2018-12-24T09:40:59.784Z,3.20
2018-12-24T09:44:04.321Z,3.10
2018-12-24T09:47:09.138Z,2.77
2018-12-24T09:50:13.975Z,2.87
2018-12-24T09:53:18.814Z,2.87
2018-12-24T09:56:23.358Z,2.57
2018-12-24T10:00:11.167Z,2.40
2018-12-24T10:03:16.204Z,1.93
2018-12-24T10:06:21.044Z,1.77
2018-12-24T10:09:25.479Z,1.20
2018-12-24T10:12:29.907Z,1.20
2018-12-24T10:15:34.341Z,1.10
2018-12-24T10:18:39.241Z,1.20
2018-12-24T10:21:44.076Z,1.20
2018-12-24T10:24:48.509Z,1.37
2018-12-24T10:27:52.939Z,2.00
2018-12-24T10:30:57.376Z,2.70
2018-12-24T10:34:01.823Z,3.20
2018-12-24T10:37:06.242Z,3.30
2018-12-24T10:40:13.179Z,3.43
2018-12-24T10:43:17.728Z,4.60
2018-12-24T10:46:22.224Z,5.07
2018-12-24T10:49:26.651Z,4.53
2018-12-24T10:52:31.085Z,5.27
2018-12-24T10:55:35.805Z,4.63
2018-12-24T10:58:40.232Z,5.80
2018-12-24T11:01:44.963Z,4.80
2018-12-24T11:04:49.690Z,3.30
2018-12-24T11:07:54.122Z,3.00
2018-12-24T11:10:58.847Z,2.80
2018-12-24T11:14:03.577Z,3.33
2018-12-24T11:17:08.014Z,3.50
2018-12-24T11:20:12.735Z,4.10
2018-12-24T11:23:17.465Z,3.90
2018-12-24T11:26:22.187Z,4.60
2018-12-24T11:29:26.618Z,5.30
2018-12-24T11:32:31.050Z,4.90
2018-12-24T11:35:35.489Z,5.17
2018-12-24T11:38:39.926Z,4.73
2018-12-24T11:41:44.629Z,5.40
2018-12-24T11:44:49.352Z,5.60
2018-12-24T11:47:54.078Z,5.50
2018-12-24T11:50:58.815Z,5.73
2018-12-24T11:54:03.547Z,10.63
2018-12-24T11:57:07.984Z,6.93
2018-12-24T12:00:12.407Z,6.37
2018-12-24T12:03:16.840Z,4.93
2018-12-24T12:06:21.265Z,3.80
2018-12-24T12:09:25.702Z,2.67
2018-12-24T12:12:30.153Z,3.17
2018-12-24T12:15:42.349Z,2.37
2018-12-24T12:18:41.396Z,2.60
2018-12-24T12:21:45.825Z,2.57
2018-12-24T12:24:50.297Z,4.10
2018-12-24T12:27:54.700Z,2.93
2018-12-24T12:30:59.132Z,3.07
2018-12-24T12:34:03.634Z,2.60
2018-12-24T12:37:08.057Z,2.90
2018-12-24T12:40:12.868Z,2.90
2018-12-24T12:43:17.301Z,3.43
2018-12-24T12:46:21.727Z,3.20
2018-12-24T12:49:26.170Z,4.63
2018-12-24T12:52:30.594Z,4.33
2018-12-24T12:55:35.021Z,4.63
2018-12-24T12:58:39.462Z,4.97
2018-12-24T13:01:44.133Z,4.60
2018-12-24T13:04:48.571Z,4.53
2018-12-24T13:07:53.285Z,4.43
2018-12-24T13:10:57.721Z,4.40
2018-12-24T13:14:02.440Z,4.47
2018-12-24T13:17:07.176Z,3.90
2018-12-24T13:20:11.648Z,2.67
2018-12-24T13:23:16.331Z,2.10
2018-12-24T13:26:21.061Z,1.90
2018-12-24T13:29:25.498Z,1.80
2018-12-24T13:32:29.921Z,2.10
2018-12-24T13:35:34.636Z,1.80
2018-12-24T13:38:39.070Z,2.23
2018-12-24T13:41:43.791Z,2.30
2018-12-24T13:44:48.227Z,2.83
2018-12-24T13:47:52.945Z,2.70
2018-12-24T13:50:57.371Z,2.10
2018-12-24T13:54:01.807Z,2.23
2018-12-24T13:57:06.136Z,2.10
2018-12-24T14:00:10.630Z,2.13
2018-12-24T14:03:15.368Z,2.50
2018-12-24T14:06:19.800Z,3.97
2018-12-24T14:09:24.523Z,1.60
2018-12-24T14:12:28.955Z,2.00
2018-12-24T14:15:33.678Z,1.40
2018-12-24T14:18:38.117Z,1.60
2018-12-24T14:21:42.546Z,1.70
2018-12-24T14:24:46.995Z,1.40
2018-12-24T14:27:51.412Z,1.70
2018-12-24T14:30:56.104Z,1.70
2018-12-24T14:34:00.541Z,1.50
2018-12-24T14:37:04.966Z,1.33
2018-12-24T14:40:09.403Z,1.43
2018-12-24T14:43:14.113Z,1.60
2018-12-24T14:46:25.579Z,2.00
2018-12-24T14:49:25.001Z,2.10
2018-12-24T14:52:29.431Z,2.90
2018-12-24T14:55:33.858Z,2.67
2018-12-24T14:58:38.297Z,2.83
2018-12-24T15:01:42.720Z,3.10
2018-12-24T15:04:47.254Z,2.90
2018-12-24T15:07:51.952Z,2.67
2018-12-24T15:10:56.379Z,3.00
2018-12-24T15:14:00.823Z,3.80
2018-12-24T15:17:05.530Z,3.37
2018-12-24T15:20:09.963Z,3.70
2018-12-24T15:23:14.695Z,3.17
2018-12-24T15:26:19.131Z,3.77
2018-12-24T15:29:23.567Z,3.50
2018-12-24T15:32:28.260Z,3.33
2018-12-24T15:35:32.996Z,4.00
2018-12-24T15:38:37.724Z,3.17
2018-12-24T15:41:42.156Z,3.67
2018-12-24T15:44:46.881Z,3.73
2018-12-24T15:47:51.314Z,3.17
2018-12-24T15:50:56.040Z,3.07
2018-12-24T15:54:01.070Z,3.70
2018-12-24T15:57:05.804Z,3.80
2018-12-24T16:00:10.808Z,2.90
2018-12-24T16:03:15.249Z,3.10
2018-12-24T16:06:20.000Z,2.73
2018-12-24T16:09:24.721Z,3.00
2018-12-24T16:12:29.455Z,2.80
2018-12-24T16:15:33.888Z,2.73
2018-12-24T16:18:38.314Z,2.93
2018-12-24T16:21:42.747Z,3.20
2018-12-24T16:24:47.457Z,2.80
2018-12-24T16:27:51.887Z,2.70
2018-12-24T16:30:56.612Z,4.53
2018-12-24T16:34:01.043Z,3.10
2018-12-24T16:37:05.772Z,3.53
2018-12-24T16:40:10.492Z,4.60
2018-12-24T16:43:14.917Z,4.27
2018-12-24T16:46:19.369Z,4.10
2018-12-24T16:49:24.071Z,3.80
2018-12-24T16:52:28.510Z,5.20
2018-12-24T16:55:33.226Z,6.23
2018-12-24T16:58:37.970Z,7.93
2018-12-24T17:01:42.691Z,7.10
2018-12-24T17:04:47.118Z,7.50
2018-12-24T17:07:51.554Z,6.73
2018-12-24T17:10:56.002Z,5.60
2018-12-24T17:14:00.429Z,5.57
2018-12-24T17:17:07.872Z,6.00
2018-12-24T17:20:11.268Z,5.77
2018-12-24T17:23:16.007Z,6.27
2018-12-24T17:26:20.453Z,5.97
2018-12-24T17:29:24.963Z,7.33
2018-12-24T17:32:29.694Z,6.77
2018-12-24T17:35:34.422Z,7.33
2018-12-24T17:38:39.154Z,8.00
2018-12-24T17:41:43.591Z,7.80
2018-12-24T17:44:48.032Z,6.77
2018-12-24T17:47:52.469Z,7.13
2018-12-24T17:50:56.896Z,8.83
2018-12-24T17:54:01.381Z,8.13
2018-12-24T17:57:05.828Z,7.97
2018-12-24T18:00:10.263Z,8.37
2018-12-24T18:03:14.949Z,15.83
2018-12-24T18:06:19.684Z,9.07
2018-12-24T18:09:24.133Z,8.37
2018-12-24T18:12:28.623Z,8.43
2018-12-24T18:15:33.052Z,8.17
2018-12-24T18:18:37.659Z,9.37
2018-12-24T18:21:42.415Z,9.23
2018-12-24T18:24:46.851Z,8.70
2018-12-24T18:27:51.566Z,9.43
2018-12-24T18:30:57.487Z,9.43
2018-12-24T18:34:02.113Z,10.17
2018-12-24T18:37:06.549Z,9.57
2018-12-24T18:40:11.000Z,9.50
2018-12-24T18:43:15.439Z,9.17
2018-12-24T18:46:20.149Z,8.90
2018-12-24T18:49:24.642Z,9.27
2018-12-24T18:52:29.302Z,9.33
2018-12-24T18:55:33.741Z,9.00
2018-12-24T18:58:38.180Z,11.47
2018-12-24T19:01:42.612Z,9.87
2018-12-24T19:04:47.063Z,8.93
2018-12-24T19:07:51.838Z,8.30
2018-12-24T19:10:56.281Z,9.87
2018-12-24T19:14:00.720Z,9.67
2018-12-24T19:17:05.162Z,8.87
2018-12-24T19:20:10.158Z,9.30
2018-12-24T19:23:14.583Z,8.90
2018-12-24T19:26:19.021Z,8.67
2018-12-24T19:29:23.463Z,9.07
2018-12-24T19:32:27.899Z,8.33
2018-12-24T19:35:32.674Z,8.70
2018-12-24T19:38:37.107Z,9.57
2018-12-24T19:41:41.562Z,8.27
2018-12-24T19:44:46.079Z,8.97
2018-12-24T19:47:50.773Z,9.37
2018-12-24T19:50:55.506Z,9.20
2018-12-24T19:54:00.241Z,8.57
2018-12-24T19:57:04.684Z,9.87
2018-12-24T20:00:09.795Z,9.00
2018-12-24T20:03:14.225Z,8.90
2018-12-24T20:06:18.956Z,8.97
2018-12-24T20:09:23.394Z,8.80
2018-12-24T20:12:28.107Z,9.30
2018-12-24T20:15:32.841Z,8.30
2018-12-24T20:18:37.880Z,8.70
2018-12-24T20:21:42.329Z,8.37
2018-12-24T20:24:46.759Z,7.20
2018-12-24T20:27:51.197Z,7.07
2018-12-24T20:30:55.986Z,6.80
2018-12-24T20:34:00.409Z,6.83
2018-12-24T20:37:04.851Z,7.07
2018-12-24T20:40:09.577Z,7.67
2018-12-24T20:43:17.263Z,6.00
2018-12-24T20:46:21.994Z,7.17
2018-12-24T20:49:26.730Z,6.17
2018-12-24T20:52:31.161Z,7.40
2018-12-24T20:55:35.875Z,6.33
2018-12-24T20:58:40.310Z,6.43
2018-12-24T21:01:44.744Z,6.53
2018-12-24T21:04:49.174Z,6.33
2018-12-24T21:07:53.609Z,5.83
2018-12-24T21:10:58.303Z,5.87
2018-12-24T21:14:02.734Z,6.47
2018-12-24T21:17:07.176Z,5.30
2018-12-24T21:20:11.602Z,5.87
2018-12-24T21:23:16.031Z,6.30
2018-12-24T21:26:20.464Z,6.13
2018-12-24T21:29:25.149Z,6.10
2018-12-24T21:32:29.596Z,6.43
2018-12-24T21:35:34.028Z,6.63
2018-12-24T21:38:38.475Z,7.60
2018-12-24T21:41:42.908Z,6.80
2018-12-24T21:44:47.690Z,6.70
2018-12-24T21:47:52.614Z,6.53
2018-12-24T21:50:57.037Z,4.83
2018-12-24T21:54:01.474Z,5.17
2018-12-24T21:57:07.115Z,5.23
2018-12-24T22:00:11.538Z,5.33
2018-12-24T22:03:16.265Z,4.60
2018-12-24T22:06:21.002Z,5.00
2018-12-24T22:09:25.725Z,5.13
2018-12-24T22:12:30.455Z,5.10
2018-12-24T22:15:35.184Z,4.93
2018-12-24T22:18:39.632Z,4.67
2018-12-24T22:21:44.337Z,4.80
2018-12-24T22:24:49.198Z,5.17
2018-12-24T22:27:53.613Z,5.00
2018-12-24T22:30:58.039Z,4.57
2018-12-24T22:34:02.748Z,4.97
2018-12-24T22:37:07.189Z,5.10
2018-12-24T22:40:11.616Z,4.53
2018-12-24T22:43:16.050Z,4.43
2018-12-24T22:46:20.755Z,5.37
2018-12-24T22:49:25.485Z,5.03
2018-12-24T22:52:30.214Z,5.20
2018-12-24T22:55:34.947Z,4.87
2018-12-24T22:58:39.388Z,5.23
2018-12-24T23:01:43.820Z,4.90
2018-12-24T23:04:48.259Z,5.30
2018-12-24T23:07:52.940Z,5.17
2018-12-24T23:10:57.675Z,5.27
2018-12-24T23:14:02.407Z,5.33
2018-12-24T23:17:07.137Z,4.83
2018-12-24T23:20:11.578Z,5.00
2018-12-24T23:23:16.781Z,4.83
2018-12-24T23:26:21.217Z,5.07
2018-12-24T23:29:25.975Z,5.33
2018-12-24T23:32:30.418Z,5.77
2018-12-24T23:35:34.851Z,5.90
2018-12-24T23:38:39.291Z,5.70
2018-12-24T23:41:44.066Z,5.60
2018-12-24T23:44:48.500Z,5.13
2018-12-24T23:47:52.935Z,5.33
2018-12-24T23:50:57.639Z,5.17
2018-12-24T23:54:02.306Z,5.00
2018-12-24T23:57:07.000Z,5.00
